sensor_id;sensor_type;location;lat;lon;timestamp;temperature;humidity
47514;DHT22;33951;51.988;5.910;2022-10-22T05:06:20;13.30;99.90
47514;DHT22;33951;51.988;5.910;2022-10-22T06:13:18;13.40;99.90
47514;DHT22;33951;51.988;5.910;2022-10-22T07:43:24;14.10;99.90
47514;DHT22;33951;51.988;5.910;2022-10-22T08:34:35;14.90;99.90
47514;DHT22;33951;51.988;5.910;2022-10-22T12:00:51;18.30;99.90
47514;DHT22;33951;51.988;5.910;2022-10-22T12:20:59;18.10;99.90
47514;DHT22;33951;51.988;5.910;2022-10-22T12:29:56;18.50;99.90
47514;DHT22;33951;51.988;5.910;2022-10-22T12:36:26;18.40;99.90
47514;DHT22;33951;51.988;5.910;2022-10-22T15:00:50;18.50;99.90
47514;DHT22;33951;51.988;5.910;2022-10-22T15:03:32;18.60;99.90
47514;DHT22;33951;51.988;5.910;2022-10-22T15:07:08;18.70;99.90
47514;DHT22;33951;51.988;5.910;2022-10-22T15:42:16;18.30;99.90
47514;DHT22;33951;51.988;5.910;2022-10-22T15:45:39;18.40;99.90
47514;DHT22;33951;51.988;5.910;2022-10-22T15:55:40;18.80;99.90
47514;DHT22;33951;51.988;5.910;2022-10-22T15:59:43;18.60;99.90
47514;DHT22;33951;51.988;5.910;2022-10-22T16:16:32;18.80;99.90
47514;DHT22;33951;51.988;5.910;2022-10-22T16:30:17;18.50;99.90
47514;DHT22;33951;51.988;5.910;2022-10-22T17:03:17;17.30;99.90
47514;DHT22;33951;51.988;5.910;2022-10-22T17:21:22;16.70;99.90
47514;DHT22;33951;51.988;5.910;2022-10-22T17:38:32;16.20;99.90
47514;DHT22;33951;51.988;5.910;2022-10-22T18:35:35;15.30;99.90
47514;DHT22;33951;51.988;5.910;2022-10-22T21:03:08;14.60;99.90
47514;DHT22;33951;51.988;5.910;2022-10-22T21:05:33;14.70;99.90
47514;DHT22;33951;51.988;5.910;2022-10-22T21:07:59;14.60;99.90
47514;DHT22;33951;51.988;5.910;2022-10-22T21:10:27;14.60;99.90
47514;DHT22;33951;51.988;5.910;2022-10-22T21:12:53;14.60;99.90
47514;DHT22;33951;51.988;5.910;2022-10-22T21:15:25;14.60;99.90
47514;DHT22;33951;51.988;5.910;2022-10-22T21:17:51;14.60;99.90
47514;DHT22;33951;51.988;5.910;2022-10-22T21:20:20;14.60;99.90
47514;DHT22;33951;51.988;5.910;2022-10-22T21:22:50;14.50;99.90
47514;DHT22;33951;51.988;5.910;2022-10-22T21:25:16;14.50;99.90
47514;DHT22;33951;51.988;5.910;2022-10-22T21:27:42;14.60;99.90
47514;DHT22;33951;51.988;5.910;2022-10-22T21:30:10;14.40;99.90
47514;DHT22;33951;51.988;5.910;2022-10-22T21:32:39;14.40;99.90
47514;DHT22;33951;51.988;5.910;2022-10-22T21:35:05;14.40;99.90
47514;DHT22;33951;51.988;5.910;2022-10-22T21:37:33;14.50;99.90
47514;DHT22;33951;51.988;5.910;2022-10-22T21:40:04;14.40;99.90
47514;DHT22;33951;51.988;5.910;2022-10-22T21:42:30;14.40;99.90
47514;DHT22;33951;51.988;5.910;2022-10-22T21:44:58;14.30;99.90
47514;DHT22;33951;51.988;5.910;2022-10-22T21:47:26;14.40;99.90
47514;DHT22;33951;51.988;5.910;2022-10-22T21:49:57;14.50;99.90
47514;DHT22;33951;51.988;5.910;2022-10-22T21:52:23;14.60;99.90
47514;DHT22;33951;51.988;5.910;2022-10-22T21:54:55;14.50;99.90
47514;DHT22;33951;51.988;5.910;2022-10-22T21:57:34;14.50;99.90
47514;DHT22;33951;51.988;5.910;2022-10-22T22:00:25;14.60;99.90
47514;DHT22;33951;51.988;5.910;2022-10-22T22:02:53;14.60;99.90
47514;DHT22;33951;51.988;5.910;2022-10-22T22:05:24;14.40;99.90
47514;DHT22;33951;51.988;5.910;2022-10-22T22:08:16;14.50;99.90
47514;DHT22;33951;51.988;5.910;2022-10-22T22:14:34;14.50;99.90
47514;DHT22;33951;51.988;5.910;2022-10-22T22:17:02;14.60;99.90
47514;DHT22;33951;51.988;5.910;2022-10-22T22:19:30;14.50;99.90
47514;DHT22;33951;51.988;5.910;2022-10-22T22:21:56;14.60;99.90
47514;DHT22;33951;51.988;5.910;2022-10-22T22:24:21;14.70;99.90
47514;DHT22;33951;51.988;5.910;2022-10-22T22:26:56;14.80;99.90
47514;DHT22;33951;51.988;5.910;2022-10-22T22:29:25;14.80;99.90
47514;DHT22;33951;51.988;5.910;2022-10-22T22:31:51;14.70;99.90
47514;DHT22;33951;51.988;5.910;2022-10-22T22:34:17;14.70;99.90
47514;DHT22;33951;51.988;5.910;2022-10-22T22:36:44;14.70;99.90
47514;DHT22;33951;51.988;5.910;2022-10-22T22:39:13;14.70;99.90
47514;DHT22;33951;51.988;5.910;2022-10-22T22:41:42;14.70;99.90
47514;DHT22;33951;51.988;5.910;2022-10-22T22:44:11;14.60;99.90
47514;DHT22;33951;51.988;5.910;2022-10-22T22:46:39;14.40;99.90
47514;DHT22;33951;51.988;5.910;2022-10-22T22:49:08;14.60;99.90
47514;DHT22;33951;51.988;5.910;2022-10-22T22:51:34;14.80;99.90
47514;DHT22;33951;51.988;5.910;2022-10-22T22:54:04;14.70;99.90
47514;DHT22;33951;51.988;5.910;2022-10-22T22:56:31;14.80;99.90
47514;DHT22;33951;51.988;5.910;2022-10-22T22:58:57;14.80;99.90
47514;DHT22;33951;51.988;5.910;2022-10-22T23:01:34;14.90;99.90
47514;DHT22;33951;51.988;5.910;2022-10-22T23:04:13;14.90;99.90
47514;DHT22;33951;51.988;5.910;2022-10-22T23:06:41;14.90;99.90
47514;DHT22;33951;51.988;5.910;2022-10-22T23:09:11;14.80;99.90
47514;DHT22;33951;51.988;5.910;2022-10-22T23:11:38;14.80;99.90
47514;DHT22;33951;51.988;5.910;2022-10-22T23:14:06;14.80;99.90
47514;DHT22;33951;51.988;5.910;2022-10-22T23:16:35;14.90;99.90
47514;DHT22;33951;51.988;5.910;2022-10-22T23:19:02;14.80;99.90
47514;DHT22;33951;51.988;5.910;2022-10-22T23:21:32;14.60;99.90
47514;DHT22;33951;51.988;5.910;2022-10-22T23:24:14;14.50;99.90
47514;DHT22;33951;51.988;5.910;2022-10-22T23:26:50;14.50;99.90
47514;DHT22;33951;51.988;5.910;2022-10-22T23:31:59;14.30;99.90
47514;DHT22;33951;51.988;5.910;2022-10-22T23:34:40;14.30;99.90
47514;DHT22;33951;51.988;5.910;2022-10-22T23:37:18;14.20;99.90
47514;DHT22;33951;51.988;5.910;2022-10-22T23:39:49;14.10;99.90
47514;DHT22;33951;51.988;5.910;2022-10-22T23:42:31;14.10;99.90
47514;DHT22;33951;51.988;5.910;2022-10-22T23:44:59;14.10;99.90
47514;DHT22;33951;51.988;5.910;2022-10-22T23:47:27;14.10;99.90
47514;DHT22;33951;51.988;5.910;2022-10-22T23:53:00;14.10;99.90
47514;DHT22;33951;51.988;5.910;2022-10-22T23:55:30;14.10;99.90
47514;DHT22;33951;51.988;5.910;2022-10-22T23:58:14;14.10;99.90
